Time;durP1;ratioP1;P1;durP2;ratioP2;P2;SDS_P1;SDS_P2;PMS_P1;PMS_P2;Temp;Humidity;BMP_temperature;BMP_pressure;BME280_temperature;BME280_humidity;BME280_pressure;Samples;Min_cycle;Max_cycle;Signal;HPM_P1;HPM_P2
2023/01/24 00:00:50;;;;;;;57.55;38.33;;;;;;;1.26;100.00;103722.44;5053086;28;20025;-57
2023/01/24 00:03:16;;;;;;;56.50;36.53;;;;;;;1.26;100.00;103724.97;5053329;28;20052;-57
2023/01/24 00:05:43;;;;;;;59.63;37.35;;;;;;;1.24;100.00;103718.78;5052052;28;20465;-57
2023/01/24 00:08:12;;;;;;;55.75;36.03;;;;;;;1.25;100.00;103729.16;5053155;28;20035;-57
2023/01/24 00:10:37;;;;;;;57.58;37.67;;;;;;;1.24;100.00;103722.25;5052828;28;20045;-57
2023/01/24 00:13:03;;;;;;;59.25;37.50;;;;;;;1.25;100.00;103724.06;5052638;28;20021;-57
2023/01/24 00:15:28;;;;;;;59.40;37.60;;;;;;;1.25;100.00;103726.63;5053042;28;20568;-57
2023/01/24 00:17:53;;;;;;;58.97;37.47;;;;;;;1.25;100.00;103726.63;5052337;28;20074;-57
2023/01/24 00:20:19;;;;;;;57.83;36.83;;;;;;;1.26;100.00;103723.31;5052723;28;20035;-57
2023/01/24 00:22:44;;;;;;;59.78;38.13;;;;;;;1.25;100.00;103726.63;5052656;28;20111;-58
2023/01/24 00:25:10;;;;;;;60.95;37.72;;;;;;;1.24;100.00;103727.34;5052325;28;20029;-57
2023/01/24 00:27:35;;;;;;;57.97;38.15;;;;;;;1.23;100.00;103722.97;5052473;28;20029;-58
2023/01/24 00:30:02;;;;;;;59.90;37.72;;;;;;;1.23;100.00;103720.44;5052976;28;20020;-57
2023/01/24 00:32:27;;;;;;;59.63;36.55;;;;;;;1.24;100.00;103714.63;5051992;28;20021;-58
2023/01/24 00:34:53;;;;;;;59.15;36.80;;;;;;;1.24;100.00;103714.63;5053563;28;20033;-57
2023/01/24 00:37:18;;;;;;;59.75;37.75;;;;;;;1.24;100.00;103707.00;5052990;28;20021;-57
2023/01/24 00:39:43;;;;;;;60.05;38.53;;;;;;;1.25;100.00;103706.28;5051874;28;20032;-58
2023/01/24 00:42:09;;;;;;;64.15;38.42;;;;;;;1.24;100.00;103699.41;5052886;28;20107;-57
2023/01/24 00:44:34;;;;;;;60.50;38.13;;;;;;;1.24;100.00;103698.47;5052563;28;20025;-57
2023/01/24 00:46:59;;;;;;;62.67;38.88;;;;;;;1.24;100.00;103696.84;5051784;28;20025;-57
2023/01/24 00:49:25;;;;;;;58.97;37.85;;;;;;;1.23;100.00;103701.78;5052657;28;20025;-57
2023/01/24 00:51:50;;;;;;;60.05;39.08;;;;;;;1.22;100.00;103695.75;5052268;28;20029;-58
2023/01/24 00:54:15;;;;;;;65.38;38.95;;;;;;;1.23;100.00;103704.31;5052013;28;20027;-57
2023/01/24 00:56:40;;;;;;;63.78;39.38;;;;;;;1.20;100.00;103702.31;5052406;28;20063;-58
2023/01/24 00:59:06;;;;;;;61.50;38.60;;;;;;;1.20;100.00;103702.31;5052700;28;20036;-57
2023/01/24 01:01:31;;;;;;;62.60;38.50;;;;;;;1.19;100.00;103704.66;5051537;28;20029;-57
2023/01/24 01:03:57;;;;;;;59.55;37.90;;;;;;;1.17;100.00;103691.78;5052505;28;20491;-57
2023/01/24 01:06:24;;;;;;;53.63;34.58;;;;;;;1.14;100.00;103697.44;5052668;28;20029;-57
2023/01/24 01:08:50;;;;;;;53.90;34.88;;;;;;;1.14;100.00;103688.91;5051517;28;20072;-58
2023/01/24 01:11:16;;;;;;;54.13;33.65;;;;;;;1.11;100.00;103689.47;5052519;28;20029;-57
2023/01/24 01:13:42;;;;;;;54.30;35.13;;;;;;;1.08;100.00;103685.66;5052431;28;20128;-57
2023/01/24 01:16:11;;;;;;;52.20;32.95;;;;;;;1.06;100.00;103679.50;5051771;28;20021;-57
2023/01/24 01:18:38;;;;;;;50.58;32.28;;;;;;;1.06;100.00;103682.03;5052023;28;20033;-58
2023/01/24 01:21:05;;;;;;;53.05;34.40;;;;;;;1.04;100.00;103680.97;5052702;28;20047;-57
2023/01/24 01:23:31;;;;;;;55.03;34.80;;;;;;;1.01;100.00;103685.69;5051394;28;20376;-57
2023/01/24 01:26:01;;;;;;;48.15;31.83;;;;;;;1.01;100.00;103685.69;5052303;28;20090;-57
2023/01/24 01:28:26;;;;;;;52.25;33.50;;;;;;;1.02;100.00;103682.44;5051825;28;20025;-58
2023/01/24 01:30:52;;;;;;;51.35;34.28;;;;;;;1.01;100.00;103688.22;5052072;28;20029;-57
2023/01/24 01:33:18;;;;;;;51.50;33.03;;;;;;;1.02;100.00;103685.91;5055799;28;20091;-57
2023/01/24 01:35:43;;;;;;;57.95;34.15;;;;;;;1.03;100.00;103691.88;5054996;28;20025;-57
2023/01/24 01:38:08;;;;;;;54.40;35.00;;;;;;;1.04;100.00;103691.13;5056193;28;20028;-57
2023/01/24 01:40:34;;;;;;;54.47;33.50;;;;;;;1.07;100.00;103699.09;5055680;28;20079;-58
2023/01/24 01:42:59;;;;;;;57.33;34.83;;;;;;;1.08;100.00;103689.09;5055234;28;20036;-57
2023/01/24 01:45:46;;;;;;;53.22;34.40;;;;;;;1.11;100.00;103689.47;5055914;28;20131;-57
2023/01/24 01:48:15;;;;;;;;;;;;;;;1.18;100.00;103688.53;5056432;28;20064;-57
2023/01/24 01:51:04;;;;;;;57.60;35.20;;;;;;;1.09;100.00;103692.56;5054924;28;19913;-58
2023/01/24 01:53:45;;;;;;;56.20;35.47;;;;;;;1.09;100.00;103688.38;5055731;28;20098;-57
2023/01/24 01:56:22;;;;;;;58.92;36.80;;;;;;;1.07;100.00;103689.84;5055838;28;20086;-57
2023/01/24 01:58:48;;;;;;;56.15;35.88;;;;;;;1.08;100.00;103681.47;5055606;28;20033;-57
2023/01/24 02:01:13;;;;;;;60.58;37.88;;;;;;;1.09;100.00;103683.31;5055713;28;20066;-58
2023/01/24 02:03:53;;;;;;;60.78;38.55;;;;;;;1.13;100.00;103689.66;5054663;28;20135;-57
2023/01/24 02:06:36;;;;;;;61.20;38.55;;;;;;;1.13;100.00;103688.00;5055440;28;20123;-57
2023/01/24 02:09:07;;;;;;;58.60;37.70;;;;;;;1.12;100.00;103685.28;5055435;28;20036;-57
2023/01/24 02:11:38;;;;;;;61.53;39.15;;;;;;;1.10;100.00;103692.75;5054487;28;20120;-57
2023/01/24 02:16:48;;;;;;;59.17;39.15;;;;;;;1.12;100.00;103680.22;5055317;28;20095;-58
2023/01/24 02:19:29;;;;;;;62.95;40.67;;;;;;;1.10;100.00;103679.16;5054786;28;20028;-58
2023/01/24 02:22:02;;;;;;;66.28;40.70;;;;;;;1.09;100.00;103678.22;5055206;28;20452;-57
2023/01/24 02:24:37;;;;;;;59.80;38.83;;;;;;;1.08;100.00;103680.59;5054591;28;20453;-57
2023/01/24 02:27:03;;;;;;;67.47;41.75;;;;;;;1.06;100.00;103682.03;5055075;28;20120;-57
2023/01/24 02:29:28;;;;;;;64.85;40.33;;;;;;;1.04;100.00;103680.97;5054717;28;20108;-57
2023/01/24 02:32:02;;;;;;;68.80;41.60;;;;;;;1.03;100.00;103684.25;5054196;28;20112;-57
2023/01/24 02:34:29;;;;;;;67.65;41.03;;;;;;;1.02;100.00;103679.88;5054991;28;20049;-57
2023/01/24 02:37:01;;;;;;;62.65;40.10;;;;;;;1.01;100.00;103683.16;5055004;28;20032;-58
2023/01/24 02:39:45;;;;;;;65.22;40.40;;;;;;;1.04;100.00;103678.44;5054271;28;20025;-57
2023/01/24 02:42:16;;;;;;;64.95;40.90;;;;;;;1.02;100.00;103682.44;5055054;28;20100;-58
2023/01/24 02:44:48;;;;;;;65.22;41.20;;;;;;;1.01;100.00;103679.00;5053545;28;20071;-57
2023/01/24 02:47:13;;;;;;;64.35;41.17;;;;;;;0.98;100.00;103679.56;5054128;28;20068;-58
2023/01/24 02:49:38;;;;;;;65.88;41.17;;;;;;;0.98;100.00;103683.69;5054682;28;20061;-57
2023/01/24 02:54:48;;;;;;;63.30;40.30;;;;;;;0.98;100.00;103687.16;5053951;28;20044;-57
2023/01/24 02:59:57;;;;;;;63.53;40.42;;;;;;;0.98;100.00;103674.47;5053905;28;20257;-57
2023/01/24 03:02:22;;;;;;;66.30;41.97;;;;;;;0.98;100.00;103679.56;5054587;28;20029;-58
2023/01/24 03:04:47;;;;;;;66.28;41.13;;;;;;;0.98;100.00;103679.56;5054091;28;20021;-58
2023/01/24 03:07:13;;;;;;;65.50;41.47;;;;;;;0.97;100.00;103677.72;5053818;28;20086;-57
2023/01/24 03:09:45;;;;;;;64.45;42.30;;;;;;;0.95;100.00;103676.63;5054026;28;20048;-58
2023/01/24 03:36:52;;;;;;;71.10;45.55;;;;;;;0.84;100.00;103672.00;5053027;28;20451;-57
2023/01/24 03:42:01;;;;;;;73.28;46.65;;;;;;;0.85;100.00;103670.34;5053240;28;20047;-57
2023/01/24 03:44:26;;;;;;;74.03;47.35;;;;;;;0.84;100.00;103669.47;5053627;28;20123;-57
2023/01/24 03:46:52;;;;;;;71.22;47.10;;;;;;;0.87;100.00;103664.72;5053730;28;20108;-58
2023/01/24 03:49:17;;;;;;;71.97;45.97;;;;;;;0.85;100.00;103668.69;5052827;28;20480;-58
2023/01/24 03:54:27;;;;;;;74.47;44.63;;;;;;;0.82;100.00;103665.81;5053635;28;20075;-57
2023/01/24 03:56:52;;;;;;;69.32;44.50;;;;;;;0.80;100.00;103672.34;5052497;28;20060;-57
2023/01/24 03:59:17;;;;;;;69.85;45.13;;;;;;;0.78;100.00;103673.81;5053595;28;20025;-57
2023/01/24 04:01:42;;;;;;;71.20;45.17;;;;;;;0.77;100.00;103666.94;5052897;28;20111;-57
2023/01/24 04:04:08;;;;;;;73.95;45.95;;;;;;;0.77;100.00;103666.94;5052658;28;20037;-58
2023/01/24 04:06:33;;;;;;;67.30;44.17;;;;;;;0.76;100.00;103670.19;5052992;28;20031;-57
2023/01/24 04:08:58;;;;;;;67.90;42.88;;;;;;;0.73;100.00;103673.28;5053013;28;20047;-58
2023/01/24 04:11:23;;;;;;;73.05;44.90;;;;;;;0.73;100.00;103674.94;5052497;28;20033;-57
2023/01/24 04:13:49;;;;;;;70.95;43.92;;;;;;;0.72;100.00;103675.66;5052827;28;20027;-57
2023/01/24 04:16:14;;;;;;;68.38;43.83;;;;;;;0.71;100.00;103672.22;5053311;28;20040;-58
2023/01/24 04:18:40;;;;;;;68.10;43.40;;;;;;;0.70;100.00;103672.03;5052060;28;20109;-57
2023/01/24 04:21:05;;;;;;;66.47;43.13;;;;;;;0.68;100.00;103676.94;5052902;28;20017;-58
2023/01/24 04:23:31;;;;;;;65.10;42.53;;;;;;;0.70;100.00;103665.31;5052836;28;20059;-57
2023/01/24 04:25:59;;;;;;;68.97;44.80;;;;;;;0.68;100.00;103676.94;5052068;28;20464;-58
2023/01/24 04:28:25;;;;;;;;;;;;;;;0.79;100.00;103670.56;5053660;28;20100;-58
2023/01/24 04:30:57;;;;;;;71.43;43.78;;;;;;;0.69;100.00;103680.38;5052757;28;19959;-57
2023/01/24 04:33:22;;;;;;;70.38;43.53;;;;;;;0.67;100.00;103675.09;5052315;28;20017;-57
2023/01/24 04:35:47;;;;;;;68.63;43.17;;;;;;;0.67;100.00;103674.22;5052507;28;20078;-57
2023/01/24 04:38:13;;;;;;;64.57;43.72;;;;;;;0.65;100.00;103677.47;5052077;28;20037;-58
2023/01/24 04:40:39;;;;;;;67.80;43.40;;;;;;;0.64;100.00;103678.19;5052526;28;20029;-58
2023/01/24 04:43:04;;;;;;;68.70;43.15;;;;;;;0.64;100.00;103677.31;5053003;28;20025;-57
2023/01/24 04:45:29;;;;;;;68.68;43.78;;;;;;;0.64;100.00;103683.28;5051645;28;20104;-57
2023/01/24 04:47:54;;;;;;;69.57;44.70;;;;;;;0.64;100.00;103680.72;5052815;28;20033;-58
2023/01/24 04:50:20;;;;;;;69.80;43.15;;;;;;;0.64;100.00;103678.19;5052901;28;20033;-57
2023/01/24 04:52:45;;;;;;;67.15;42.45;;;;;;;0.64;100.00;103683.28;5051680;28;20111;-57
2023/01/24 04:55:11;;;;;;;68.03;44.13;;;;;;;0.64;100.00;103685.81;5052633;28;20017;-58
2023/01/24 04:57:36;;;;;;;66.15;44.03;;;;;;;0.65;100.00;103680.00;5052601;28;20471;-58
2023/01/24 05:00:03;;;;;;;69.43;43.33;;;;;;;0.63;100.00;103684.03;5052081;28;20552;-57
2023/01/24 05:02:28;;;;;;;68.10;43.63;;;;;;;0.62;100.00;103682.22;5052344;28;20032;-57
2023/01/24 05:04:53;;;;;;;68.63;42.60;;;;;;;0.60;100.00;103683.66;5052542;28;20029;-58
2023/01/24 05:07:18;;;;;;;64.57;41.10;;;;;;;0.60;100.00;103687.84;5053926;28;20028;-58
2023/01/24 05:09:44;;;;;;;66.70;42.40;;;;;;;0.62;100.00;103681.28;5056129;28;20122;-57
2023/01/24 05:12:09;;;;;;;62.08;40.78;;;;;;;0.60;100.00;103688.72;5056562;28;20456;-57
2023/01/24 05:14:34;;;;;;;66.30;42.30;;;;;;;0.59;100.00;103681.84;5055721;28;20087;-58
2023/01/24 05:17:00;;;;;;;66.15;42.42;;;;;;;0.56;100.00;103681.50;5056600;28;20025;-58
2023/01/24 05:19:25;;;;;;;66.43;42.08;;;;;;;0.59;100.00;103683.47;5056503;28;20049;-57
2023/01/24 05:21:50;;;;;;;63.78;40.67;;;;;;;0.57;100.00;103690.00;5055410;28;20032;-58
2023/01/24 05:24:18;;;;;;;64.28;41.20;;;;;;;0.57;100.00;103688.38;5056260;28;20526;-57
2023/01/24 05:26:43;;;;;;;62.03;40.60;;;;;;;0.56;100.00;103696.72;5056150;28;20036;-57
2023/01/24 05:29:08;;;;;;;64.90;41.13;;;;;;;0.56;100.00;103689.09;5055483;28;20025;-57
2023/01/24 05:31:33;;;;;;;62.63;40.63;;;;;;;0.56;100.00;103690.75;5056040;28;20025;-57
2023/01/24 05:33:59;;;;;;;64.70;41.53;;;;;;;0.54;100.00;103693.09;5056245;28;20028;-57
2023/01/24 05:36:25;;;;;;;65.07;41.22;;;;;;;0.55;100.00;103694.91;5055619;28;20115;-58
2023/01/24 05:38:50;;;;;;;63.92;41.30;;;;;;;0.54;100.00;103699.81;5055890;28;20021;-57
2023/01/24 05:41:17;;;;;;;61.85;41.00;;;;;;;0.51;100.00;103697.81;5055896;28;20388;-57
2023/01/24 05:43:44;;;;;;;61.35;41.13;;;;;;;0.50;100.00;103696.00;5055153;28;20036;-57
2023/01/24 05:46:15;;;;;;;64.00;40.00;;;;;;;0.49;100.00;103694.19;5056030;28;20074;-58
2023/01/24 05:48:42;;;;;;;64.97;41.67;;;;;;;0.53;100.00;103706.53;5054990;28;20029;-57
2023/01/24 05:51:10;;;;;;;65.72;41.13;;;;;;;0.51;100.00;103707.06;5056058;28;20029;-57
2023/01/24 05:53:38;;;;;;;61.15;39.80;;;;;;;0.49;100.00;103709.41;5055384;28;20096;-57
2023/01/24 05:56:06;;;;;;;63.20;40.33;;;;;;;0.47;100.00;103711.78;5055068;28;20472;-57
2023/01/24 05:58:42;;;;;;;62.85;40.60;;;;;;;0.51;100.00;103717.22;5055594;28;20040;-57
2023/01/24 06:01:16;;;;;;;67.63;42.63;;;;;;;0.50;100.00;103723.91;5055784;28;20029;-57
2023/01/24 06:03:42;;;;;;;66.43;42.72;;;;;;;0.47;100.00;103721.03;5054543;28;20476;-58
2023/01/24 06:06:09;;;;;;;65.63;42.63;;;;;;;0.47;100.00;103726.09;5055419;28;20029;-58
2023/01/24 06:08:35;;;;;;;70.78;44.42;;;;;;;0.46;100.00;103720.09;5055467;28;20036;-57
2023/01/24 06:11:03;;;;;;;65.78;43.45;;;;;;;0.48;100.00;103725.38;5054585;28;20037;-57
2023/01/24 06:13:29;;;;;;;;;;;;;;;0.59;100.00;103724.09;5055452;28;20477;-57
2023/01/24 06:16:00;;;;;;;68.88;44.00;;;;;;;0.46;100.00;103729.38;5055599;28;19999;-57
2023/01/24 06:18:26;;;;;;;68.38;43.97;;;;;;;0.44;100.00;103721.59;5054216;28;20025;-57
2023/01/24 06:20:51;;;;;;;68.38;43.75;;;;;;;0.45;100.00;103723.41;5054897;28;20112;-57
2023/01/24 06:23:23;;;;;;;72.57;44.33;;;;;;;0.44;100.00;103730.81;5055541;28;20021;-57
2023/01/24 06:25:49;;;;;;;64.22;42.85;;;;;;;0.44;100.00;103724.13;5054173;28;20530;-57
2023/01/24 06:28:15;;;;;;;68.88;44.03;;;;;;;0.43;100.00;103723.94;5055117;28;20033;-57
2023/01/24 06:30:43;;;;;;;74.25;46.22;;;;;;;0.41;100.00;103725.38;5054089;28;20079;-57
2023/01/24 06:33:23;;;;;;;70.07;46.05;;;;;;;0.41;100.00;103730.47;5054862;28;20028;-57
2023/01/24 06:36:22;;;;;;;73.50;46.03;;;;;;;0.45;100.00;103737.69;5054933;28;20033;-58
2023/01/24 06:38:48;;;;;;;74.53;46.80;;;;;;;0.40;100.00;103734.63;5054012;28;20175;-57
2023/01/24 06:41:16;;;;;;;72.03;47.03;;;;;;;0.38;100.00;103735.19;5054822;28;20025;-57
2023/01/24 06:43:42;;;;;;;74.40;46.92;;;;;;;0.36;100.00;103742.59;5054497;28;20476;-57
2023/01/24 06:46:09;;;;;;;72.25;46.75;;;;;;;0.35;100.00;103744.94;5053872;28;20071;-57
2023/01/24 06:48:34;;;;;;;77.70;48.10;;;;;;;0.33;100.00;103748.22;5054539;28;20074;-57
2023/01/24 06:51:00;;;;;;;74.15;46.08;;;;;;;0.31;100.00;103744.59;5054944;28;20017;-57
2023/01/24 06:53:25;;;;;;;72.30;46.90;;;;;;;0.30;100.00;103747.84;5054044;28;20076;-58
2023/01/24 06:55:50;;;;;;;77.65;49.17;;;;;;;0.30;100.00;103735.19;5054228;28;20506;-57
2023/01/24 06:58:16;;;;;;;74.15;47.13;;;;;;;0.29;100.00;103735.88;5054526;28;20036;-57
2023/01/24 07:00:41;;;;;;;75.68;48.58;;;;;;;0.27;100.00;103742.44;5053463;28;20415;-57
2023/01/24 07:03:07;;;;;;;73.22;47.28;;;;;;;0.26;100.00;103738.09;5054441;28;20486;-57
2023/01/24 07:05:35;;;;;;;76.70;48.20;;;;;;;0.27;100.00;103744.03;5054066;28;20538;-57
2023/01/24 07:08:00;;;;;;;77.53;49.78;;;;;;;0.28;100.00;103746.75;5053578;28;20388;-57
2023/01/24 07:10:26;;;;;;;79.72;49.97;;;;;;;0.26;100.00;103745.69;5054044;28;20053;-57
2023/01/24 07:12:51;;;;;;;72.70;46.45;;;;;;;0.27;100.00;103742.44;5053497;28;20464;-57
2023/01/24 07:15:16;;;;;;;75.30;48.55;;;;;;;0.28;100.00;103754.38;5054131;28;20055;-57
2023/01/24 07:17:42;;;;;;;80.47;49.15;;;;;;;0.27;100.00;103755.13;5054055;28;20056;-57
2023/01/24 07:20:09;;;;;;;78.53;49.55;;;;;;;0.26;100.00;103760.91;5053596;28;20091;-57
2023/01/24 07:22:37;;;;;;;78.28;49.40;;;;;;;0.26;100.00;103771.06;5053836;28;20021;-57
2023/01/24 07:25:03;;;;;;;;;;;;;;;0.38;100.00;103773.25;5054366;28;20071;-57
2023/01/24 07:27:28;;;;;;;72.00;47.90;;;;;;;0.28;100.00;103769.59;5052694;28;19917;-57
2023/01/24 07:29:54;;;;;;;81.20;51.22;;;;;;;0.28;100.00;103778.84;5053354;28;20021;-57
2023/01/24 07:32:19;;;;;;;77.68;48.47;;;;;;;0.29;100.00;103776.47;5053741;28;20035;-57
2023/01/24 07:34:44;;;;;;;80.32;51.42;;;;;;;0.29;100.00;103778.13;5052694;28;20043;-57
2023/01/24 07:37:10;;;;;;;80.32;50.00;;;;;;;0.28;100.00;103782.28;5053700;28;20028;-57
2023/01/24 07:39:35;;;;;;;76.90;49.17;;;;;;;0.28;100.00;103783.91;5053568;28;20112;-57
2023/01/24 07:42:00;;;;;;;77.22;48.58;;;;;;;0.28;100.00;103784.81;5052839;28;20087;-57
2023/01/24 07:44:25;;;;;;;79.60;49.40;;;;;;;0.27;100.00;103780.50;5053866;28;20021;-57
2023/01/24 07:46:51;;;;;;;77.97;50.13;;;;;;;0.27;100.00;103788.09;5053274;28;20428;-57
2023/01/24 07:49:16;;;;;;;80.63;50.58;;;;;;;0.26;100.00;103781.19;5052771;28;20028;-57
2023/01/24 07:51:41;;;;;;;82.22;50.10;;;;;;;0.27;100.00;103783.03;5053352;28;20032;-57
2023/01/24 07:54:07;;;;;;;82.13;50.58;;;;;;;0.27;100.00;103790.63;5053507;28;20427;-57
2023/01/24 07:56:32;;;;;;;83.80;50.80;;;;;;;0.27;100.00;103792.25;5052296;28;20504;-57
2023/01/24 07:58:58;;;;;;;82.72;50.53;;;;;;;0.27;100.00;103790.63;5053538;28;20540;-57
2023/01/24 08:01:24;;;;;;;83.90;51.65;;;;;;;0.26;100.00;103801.50;5053528;28;20033;-57
2023/01/24 08:03:53;;;;;;;84.15;51.72;;;;;;;0.27;100.00;103802.38;5052236;28;20049;-57
2023/01/24 08:06:18;;;;;;;85.15;52.30;;;;;;;0.27;100.00;103804.94;5053166;28;20110;-57
2023/01/24 08:08:43;;;;;;;84.70;50.95;;;;;;;0.25;100.00;103794.59;5052947;28;20480;-57
2023/01/24 08:11:11;;;;;;;81.03;50.28;;;;;;;0.25;100.00;103798.78;5052163;28;20044;-57
2023/01/24 08:13:36;;;;;;;84.93;51.47;;;;;;;0.25;100.00;103809.81;5053017;28;20036;-57
2023/01/24 08:16:03;;;;;;;85.00;51.78;;;;;;;0.24;100.00;103796.97;5053272;28;20381;-57
2023/01/24 08:18:28;;;;;;;83.53;50.63;;;;;;;0.20;100.00;103805.84;5051887;28;20037;-57
2023/01/24 08:20:55;;;;;;;81.22;50.90;;;;;;;0.18;100.00;103804.72;5053097;28;20024;-57
2023/01/24 08:23:20;;;;;;;84.32;50.38;;;;;;;0.17;100.00;103800.41;5052226;28;20023;-57
2023/01/24 08:25:45;;;;;;;80.57;49.22;;;;;;;0.17;100.00;103805.47;5052618;28;20033;-57
2023/01/24 08:28:11;;;;;;;81.35;47.90;;;;;;;0.18;100.00;103804.72;5052941;28;20484;-57
2023/01/24 08:30:36;;;;;;;76.35;47.10;;;;;;;0.19;100.00;103809.09;5051865;28;20031;-57
2023/01/24 08:33:03;;;;;;;79.25;47.63;;;;;;;0.20;100.00;103810.00;5053024;28;20082;-57
2023/01/24 08:35:29;;;;;;;80.95;49.25;;;;;;;0.22;100.00;103813.63;5052605;28;20053;-57
2023/01/24 08:37:55;;;;;;;78.28;48.42;;;;;;;0.23;100.00;103820.50;5052020;28;20465;-57
2023/01/24 08:40:20;;;;;;;82.97;50.90;;;;;;;0.25;100.00;103812.38;5052598;28;20060;-57
2023/01/24 08:42:45;;;;;;;80.28;48.55;;;;;;;0.25;100.00;103824.16;5052722;28;20072;-57
2023/01/24 08:45:11;;;;;;;83.57;49.50;;;;;;;0.25;100.00;103819.09;5051851;28;20079;-57
2023/01/24 08:47:36;;;;;;;80.80;48.33;;;;;;;0.26;100.00;103826.88;5052341;28;20067;-57
2023/01/24 08:50:02;;;;;;;85.68;50.03;;;;;;;0.28;100.00;103829.56;5052687;28;20032;-57
2023/01/24 08:52:27;;;;;;;81.03;49.35;;;;;;;0.30;100.00;103826.50;5051753;28;20028;-57
2023/01/24 08:54:53;;;;;;;83.85;49.78;;;;;;;0.33;100.00;103833.56;5052487;28;20044;-57
2023/01/24 08:57:18;;;;;;;80.00;48.30;;;;;;;0.33;100.00;103831.03;5052842;28;20021;-57
2023/01/24 08:59:43;;;;;;;78.68;48.88;;;;;;;0.34;100.00;103830.31;5051577;28;20530;-57
2023/01/24 09:02:13;;;;;;;86.22;50.33;;;;;;;0.33;100.00;103831.94;5052659;28;20029;-57
2023/01/24 09:04:38;;;;;;;84.22;50.50;;;;;;;0.37;100.00;103835.75;5052280;28;20025;-57
2023/01/24 09:07:04;;;;;;;84.47;49.60;;;;;;;0.39;100.00;103836.84;5051646;28;20040;-57
2023/01/24 09:09:29;;;;;;;84.57;49.90;;;;;;;0.40;100.00;103835.19;5052016;28;20037;-57
2023/01/24 09:11:55;;;;;;;84.78;49.95;;;;;;;0.45;100.00;103834.13;5052655;28;20418;-57
2023/01/24 09:14:20;;;;;;;81.97;48.17;;;;;;;0.47;100.00;103837.75;5051767;28;20025;-57
2023/01/24 09:16:45;;;;;;;82.00;48.50;;;;;;;0.49;100.00;103838.81;5052203;28;20025;-57
2023/01/24 09:19:11;;;;;;;79.97;47.42;;;;;;;0.45;100.00;103834.13;5052522;28;20048;-57
2023/01/24 09:21:37;;;;;;;75.10;46.00;;;;;;;0.42;100.00;103838.84;5051398;28;20025;-57
2023/01/24 09:24:02;;;;;;;78.80;45.53;;;;;;;0.45;100.00;103840.13;5052272;28;20025;-57
2023/01/24 09:26:28;;;;;;;77.70;46.90;;;;;;;0.46;100.00;103841.00;5051841;28;20090;-56
2023/01/24 09:28:53;;;;;;;76.38;44.95;;;;;;;0.49;100.00;103843.91;5052281;28;20025;-56
2023/01/24 09:31:18;;;;;;;78.25;46.28;;;;;;;0.54;100.00;103844.47;5052198;28;20158;-57
2023/01/24 09:33:43;;;;;;;75.50;45.55;;;;;;;0.51;100.00;103839.03;5051274;28;20028;-56
2023/01/24 09:36:09;;;;;;;80.55;46.55;;;;;;;0.53;100.00;103843.56;5052056;28;20025;-56
2023/01/24 09:38:34;;;;;;;72.45;45.15;;;;;;;0.56;100.00;103843.03;5051797;28;20071;-57
2023/01/24 09:41:18;;;;;;;77.03;45.13;;;;;;;0.59;100.00;103841.72;5051700;28;20040;-56
2023/01/24 09:43:58;;;;;;;78.50;45.58;;;;;;;0.58;100.00;103847.56;5051985;28;20039;-56
2023/01/24 09:46:31;;;;;;;78.28;46.15;;;;;;;0.59;100.00;103844.28;5052224;28;20028;-56
2023/01/24 09:49:09;;;;;;;79.88;45.95;;;;;;;0.63;100.00;103851.56;5051335;28;20044;-56
2023/01/24 09:51:39;;;;;;;78.38;46.28;;;;;;;0.61;100.00;103847.91;5051721;28;20469;-56
2023/01/24 09:54:05;;;;;;;75.18;44.85;;;;;;;0.59;100.00;103854.41;5055281;28;20053;-56
2023/01/24 09:56:37;;;;;;;72.45;43.40;;;;;;;0.61;100.00;103845.38;5054436;28;20428;-56
2023/01/24 09:59:34;;;;;;;77.03;44.45;;;;;;;0.65;100.00;103855.16;5055525;28;20512;-56
2023/01/24 10:02:01;;;;;;;76.85;44.78;;;;;;;0.62;100.00;103859.88;5055087;28;20068;-56
2023/01/24 10:04:34;;;;;;;74.03;44.60;;;;;;;0.61;100.00;103857.16;5055684;28;20033;-56
2023/01/24 10:07:20;;;;;;;74.82;44.47;;;;;;;0.67;100.00;103862.94;5055494;28;20043;-57
2023/01/24 10:10:23;;;;;;;74.85;44.72;;;;;;;0.69;100.00;103856.44;5054094;28;20439;-56
2023/01/24 10:13:10;;;;;;;76.80;44.08;;;;;;;0.63;100.00;103858.25;5055214;28;20064;-56
2023/01/24 10:15:47;;;;;;;75.93;42.67;;;;;;;0.63;100.00;103870.94;5055142;28;20607;-56
2023/01/24 10:18:30;;;;;;;71.22;41.83;;;;;;;0.62;100.00;103870.03;5055308;28;20044;-56
2023/01/24 10:21:18;;;;;;;70.93;41.40;;;;;;;0.64;100.00;103853.34;5055401;28;20043;-56
2023/01/24 10:23:48;;;;;;;71.80;42.60;;;;;;;0.68;100.00;103868.94;5054032;28;20059;-56
2023/01/24 10:26:14;;;;;;;73.03;43.08;;;;;;;0.71;100.00;103860.06;5055145;28;20032;-56
2023/01/24 10:28:45;;;;;;;67.35;40.45;;;;;;;0.69;100.00;103870.78;5054679;28;20066;-56
2023/01/24 10:31:17;;;;;;;69.70;41.20;;;;;;;0.69;100.00;103874.19;5054247;28;20453;-56
2023/01/24 10:33:49;;;;;;;69.30;40.97;;;;;;;0.73;100.00;103867.84;5054992;28;20033;-56
2023/01/24 10:36:42;;;;;;;66.13;39.92;;;;;;;0.78;100.00;103866.78;5055009;28;20025;-56
2023/01/24 10:39:11;;;;;;;61.65;38.60;;;;;;;0.72;100.00;103866.94;5054464;28;20032;-57
2023/01/24 10:41:38;;;;;;;61.83;38.30;;;;;;;0.78;100.00;103862.59;5054545;28;20017;-56
2023/01/24 10:44:13;;;;;;;62.90;38.88;;;;;;;0.85;100.00;103859.13;5054274;28;20408;-56
2023/01/24 10:46:55;;;;;;;66.47;39.78;;;;;;;0.94;100.00;103860.25;5054383;28;20036;-57
2023/01/24 10:49:27;;;;;;;65.65;40.25;;;;;;;0.96;100.00;103862.94;5054690;28;20025;-56
2023/01/24 10:52:10;;;;;;;61.80;38.33;;;;;;;1.01;100.00;103855.84;5054106;28;20017;-56
2023/01/24 10:54:48;;;;;;;58.75;38.30;;;;;;;0.90;100.00;103862.22;5054291;28;20372;-56
2023/01/24 10:57:37;;;;;;;63.95;39.30;;;;;;;0.96;100.00;103858.75;5054784;28;20049;-56
2023/01/24 11:00:22;;;;;;;61.22;37.75;;;;;;;0.97;100.00;103860.59;5054046;28;20070;-56
2023/01/24 11:02:50;;;;;;;66.03;38.97;;;;;;;0.98;100.00;103852.25;5054320;28;20037;-56
2023/01/24 11:05:18;;;;;;;63.08;38.33;;;;;;;0.97;100.00;103852.06;5052757;28;20025;-57
2023/01/24 11:07:58;;;;;;;62.53;39.05;;;;;;;0.91;99.00;103854.78;5054053;28;20047;-56
2023/01/24 11:10:38;;;;;;;65.40;39.95;;;;;;;0.94;100.00;103850.09;5054147;28;20080;-57
2023/01/24 11:13:21;;;;;;;57.90;35.47;;;;;;;1.07;100.00;103837.19;5053669;28;20025;-56
2023/01/24 11:15:50;;;;;;;61.10;37.92;;;;;;;1.13;100.00;103847.13;5053936;28;20035;-57
2023/01/24 11:18:18;;;;;;;67.35;40.88;;;;;;;1.19;100.00;103845.31;5054107;28;20017;-57
2023/01/24 11:20:44;;;;;;;64.85;40.72;;;;;;;1.11;100.00;103843.50;5052933;28;20061;-57
2023/01/24 11:23:18;;;;;;;63.13;38.45;;;;;;;1.24;100.00;103836.59;5054278;28;20470;-57
2023/01/24 11:25:55;;;;;;;65.60;38.67;;;;;;;1.20;100.00;103834.44;5053877;28;20029;-57
2023/01/24 11:28:25;;;;;;;63.40;38.50;;;;;;;1.25;100.00;103830.78;5053300;28;20139;-57
2023/01/24 11:30:50;;;;;;;62.20;37.30;;;;;;;1.26;99.53;103835.13;5053640;28;20021;-56
2023/01/24 11:33:36;;;;;;;60.20;36.65;;;;;;;1.28;99.59;103826.03;5053114;28;20415;-56
2023/01/24 11:36:10;;;;;;;58.72;37.17;;;;;;;1.22;98.96;103826.97;5053991;28;20118;-57
2023/01/24 11:38:41;;;;;;;62.63;35.15;;;;;;;1.30;99.48;103821.13;5053521;28;20044;-56
2023/01/24 11:41:12;;;;;;;64.03;38.75;;;;;;;1.33;99.43;103820.59;5053069;28;20017;-56
2023/01/24 11:43:49;;;;;;;60.58;38.63;;;;;;;1.31;99.64;103817.88;5053192;28;20032;-56
2023/01/24 11:46:21;;;;;;;60.35;37.47;;;;;;;1.28;99.05;103815.88;5053570;28;20499;-56
2023/01/24 11:49:11;;;;;;;60.20;37.30;;;;;;;1.25;100.00;103815.53;5052700;28;20041;-56
2023/01/24 11:51:57;;;;;;;60.13;37.20;;;;;;;1.30;99.53;103816.06;5053453;28;20033;-56
2023/01/24 11:54:49;;;;;;;65.43;38.85;;;;;;;1.29;100.00;103815.16;5052917;28;20419;-56
2023/01/24 11:57:39;;;;;;;56.83;37.10;;;;;;;1.29;98.93;103815.16;5053696;28;20059;-56